createdAt,value
2023-01-13T00:00:42.908Z,8.85
2023-01-13T00:20:42.943Z,8.71
2023-01-13T00:40:42.910Z,8.64
2023-01-13T01:00:43.181Z,8.2
2023-01-13T01:20:43.060Z,8.45
2023-01-13T01:40:43.136Z,8.48
2023-01-13T02:00:43.109Z,8.62
2023-01-13T02:20:43.085Z,8.89
2023-01-13T02:40:43.179Z,8.97
2023-01-13T03:00:43.296Z,8.85
2023-01-13T03:20:43.272Z,8.89
2023-01-13T03:40:43.319Z,8.73
2023-01-13T04:00:43.351Z,8.64
2023-01-13T04:20:43.301Z,8.41
2023-01-13T04:40:43.393Z,8.15
2023-01-13T05:00:43.470Z,8.2
2023-01-13T05:20:43.494Z,8.47
2023-01-13T05:40:43.567Z,8.78
2023-01-13T06:00:43.619Z,8.54
2023-01-13T06:20:43.555Z,8.35
2023-01-13T06:40:43.614Z,8.33
2023-01-13T07:00:43.738Z,8.29
2023-01-13T07:20:43.742Z,8.39
2023-01-13T07:40:43.840Z,8.36
2023-01-13T08:00:43.859Z,8.42
2023-01-13T08:20:43.844Z,7.34
2023-01-13T08:40:43.843Z,6.66
2023-01-13T09:00:43.932Z,6.61
2023-01-13T09:20:44.044Z,6.6
2023-01-13T09:40:44.247Z,6.66
2023-01-13T10:00:44.090Z,6.73
2023-01-13T10:20:44.171Z,6.92
2023-01-13T10:40:44.200Z,7.49
2023-01-13T11:00:44.231Z,7.62
2023-01-13T11:20:44.263Z,7.97
2023-01-13T11:40:44.320Z,8.29
2023-01-13T12:00:44.308Z,8.99
2023-01-13T12:20:44.272Z,9.47
2023-01-13T12:40:44.278Z,9.96
2023-01-13T13:00:44.484Z,8.79
2023-01-13T13:20:44.447Z,8.6
2023-01-13T13:40:44.453Z,8.88
2023-01-13T14:00:44.608Z,6.63
2023-01-13T14:20:44.528Z,6.18
2023-01-13T14:40:44.566Z,6.12
2023-01-13T15:00:44.490Z,6.32
2023-01-13T15:20:44.581Z,6.32
2023-01-13T15:40:44.691Z,6.98
2023-01-13T16:00:44.653Z,6.4
2023-01-13T16:20:44.718Z,6.11
2023-01-13T16:40:44.752Z,6.14
2023-01-13T17:00:44.872Z,6.09
2023-01-13T17:20:45.007Z,6.21
2023-01-13T17:40:45.018Z,6.33
2023-01-13T18:00:45.079Z,6.5
2023-01-13T18:20:45.054Z,6.73
2023-01-13T18:40:45.108Z,6.9
2023-01-13T19:00:45.152Z,6.92
2023-01-13T19:20:45.265Z,6.94
2023-01-13T19:40:45.246Z,6.77
2023-01-13T20:00:45.301Z,6.61
2023-01-13T20:20:45.309Z,6.5
2023-01-13T20:40:45.365Z,6.34
2023-01-13T21:00:45.450Z,6.33
2023-01-13T21:20:45.512Z,6.58
2023-01-13T21:40:45.505Z,6.77
2023-01-13T22:00:46.039Z,6.6
2023-01-13T22:20:45.622Z,6.72
2023-01-13T22:40:45.532Z,6.55
2023-01-13T23:00:45.625Z,6.27
2023-01-13T23:20:45.725Z,6.24
2023-01-13T23:40:45.737Z,6.4
